Ever Dainty — 9V7951 — position and weather

sailwx.info

Track history (hours):
 
Tides and Currents Weather Stations Pressure Air Temp Water Temp Dewpoint Dewpoint Depression Visibility Wind Speed Wind Dir Waves Ship Positions

Ever Dainty

Last reported at 2018-Jun-19 04:50 UTC. Time now 2018-Jun-19 18:27 UTC.
Position N 01°25' E 103°14'.

Length 294 m; draft 11.9 m.

Type: Cargo ship. MMSI: 565106000.

Date/timePositionNaut miles runAvg speedWind from/ knotsBaromVisibWave heightAir tempDewpointWater temp
2018-Jun-19 04:50N 01°25' E 103°14'616.5
2018-Jun-19 04:29N 01°21' E 103°18'917.7
2018-Jun-19 03:58N 01°15' E 103°25'716.2
2018-Jun-19 03:30N 01°13' E 103°32'714.0
2018-Jun-19 03:00N 01°12' E 103°39'2 4.7
2018-Jun-19 02:29N 01°13' E 103°41'4 8.6
2018-Jun-19 01:59N 01°16' E 103°45'3 5.4
2018-Jun-19 01:30N 01°16' E 103°47'0 0.0
2018-Jun-19 01:00N 01°16' E 103°47'0 0.0
2018-Jun-19 00:30N 01°16' E 103°47'0 0.0
2018-Jun-19 00:00N 01°16' E 103°47'0 0.0
2018-Jun-18 23:30N 01°16' E 103°47'0 0.0
2018-Jun-18 23:01N 01°16' E 103°47'0 0.0
2018-Jun-18 22:30N 01°16' E 103°47'0 0.0
2018-Jun-18 22:00N 01°16' E 103°47'0 0.0
2018-Jun-18 21:30N 01°16' E 103°47'0 0.0
2018-Jun-18 21:00N 01°16' E 103°47'0 0.0
2018-Jun-18 20:30N 01°16' E 103°47'0 0.0
2018-Jun-18 20:00N 01°16' E 103°47'0 0.0
2018-Jun-18 19:30N 01°16' E 103°47'0 0.0
2018-Jun-18 19:00N 01°16' E 103°47'0 0.0
2018-Jun-18 18:27N 01°16' E 103°47'0 0.0
2018-Jun-18 17:54N 01°16' E 103°47'0 0.0
2018-Jun-18 17:30N 01°16' E 103°47'0 0.0
2018-Jun-18 17:00N 01°16' E 103°47'0 0.0
2018-Jun-18 16:31N 01°16' E 103°47'0 0.0
2018-Jun-18 16:00N 01°16' E 103°47'0 0.0
2018-Jun-18 15:30N 01°16' E 103°47'0 0.0
2018-Jun-18 15:00N 01°16' E 103°47'0 0.0
2018-Jun-18 14:30N 01°16' E 103°47'0 0.0
2018-Jun-18 14:00N 01°16' E 103°47'0 0.0
2018-Jun-18 13:30N 01°16' E 103°47'0 0.0
2018-Jun-18 13:00N 01°16' E 103°47'0 0.0
2018-Jun-18 12:30N 01°16' E 103°47'0 0.0
2018-Jun-18 12:00N 01°16' E 103°47'0 0.0
2018-Jun-18 11:22N 01°16' E 103°47'0 0.0
2018-Jun-18 11:00N 01°16' E 103°47'0 0.0
2018-Jun-18 10:27N 01°16' E 103°47'0 0.0
2018-Jun-18 10:00N 01°16' E 103°47'0 0.0
2018-Jun-18 09:30N 01°16' E 103°47'0 0.0
2018-Jun-18 09:00N 01°16' E 103°47'0 0.7
2018-Jun-18 08:30N 01°16' E 103°47'3 6.5
2018-Jun-18 08:01N 01°15' E 103°44'714.1
2018-Jun-18 07:30N 01°12' E 103°37'3 5.5
2018-Jun-18 07:00N 01°11' E 103°35'2 2.9
2018-Jun-18 06:27N 01°10' E 103°34'0 0.9
2018-Jun-18 06:01N 01°10' E 103°33'1 1.4
2018-Jun-18 05:30N 01°10' E 103°33'1 1.1
2018-Jun-18 05:00N 01°10' E 103°32'1 1.0
2018-Jun-18 04:28N 01°10' E 103°32'0 0.9
2018-Jun-18 04:00N 01°09' E 103°31'0 0.4
2018-Jun-18 03:30N 01°09' E 103°32'2 3.4
2018-Jun-18 03:00N 01°10' E 103°30'2 5.0
2018-Jun-18 02:30N 01°12' E 103°28'0 0.9
2018-Jun-18 01:59N 01°11' E 103°29'1 1.4
2018-Jun-18 01:30N 01°11' E 103°29'0 0.9
2018-Jun-18 01:00N 01°11' E 103°30'0 1.0
2018-Jun-18 00:30N 01°11' E 103°30'1 1.1
2018-Jun-17 23:59N 01°10' E 103°30'1 1.2
2018-Jun-17 23:30N 01°10' E 103°30'1 1.3
2018-Jun-17 22:59N 01°09' E 103°31'1 1.2
2018-Jun-17 22:29N 01°09' E 103°31'2 4.8
2018-Jun-17 21:59N 01°11' E 103°32'510.3
2018-Jun-17 21:30N 01°16' E 103°33'5 9.8
2018-Jun-17 21:00N 01°21' E 103°33'1 1.6
2018-Jun-17 20:28N 01°22' E 103°33'0 0.0
2018-Jun-17 19:37N 01°22' E 103°33'0 0.0
2018-Jun-17 19:23N 01°22' E 103°33'0 0.0
2018-Jun-17 18:52N 01°22' E 103°33'0 0.0
2018-Jun-17 18:25N 01°22' E 103°33'0 0.0
2018-Jun-17 17:55N 01°22' E 103°33'0 0.0
2018-Jun-17 17:29N 01°22' E 103°33'0 0.0
2018-Jun-17 16:53N 01°22' E 103°33'0 0.0
2018-Jun-17 16:23N 01°22' E 103°33'0 0.0
2018-Jun-17 15:29N 01°22' E 103°33'0 0.0
2018-Jun-17 14:52N 01°22' E 103°33'0 0.0
2018-Jun-17 14:23N 01°22' E 103°33'0 0.0
2018-Jun-17 13:58N 01°22' E 103°33'0 0.0
2018-Jun-17 13:19N 01°22' E 103°33'0 0.0
2018-Jun-17 12:41N 01°22' E 103°33'0 0.0
2018-Jun-17 12:26N 01°22' E 103°33'0 0.0
2018-Jun-17 11:58N 01°22' E 103°33'0 0.0
2018-Jun-17 11:20N 01°22' E 103°33'0 0.0
2018-Jun-17 10:52N 01°22' E 103°33'0 0.0
2018-Jun-17 10:17N 01°22' E 103°33'0 0.0
2018-Jun-17 09:59N 01°22' E 103°33'0 0.0
2018-Jun-17 08:58N 01°22' E 103°33'0 0.0
2018-Jun-17 08:23N 01°22' E 103°33'0 0.0
2018-Jun-17 07:47N 01°22' E 103°33'0 0.0
2018-Jun-17 07:29N 01°22' E 103°33'0 0.0
2018-Jun-17 06:56N 01°22' E 103°33'0 0.0
2018-Jun-17 06:22N 01°22' E 103°33'0 0.0
2018-Jun-17 05:53N 01°22' E 103°33'0 0.0
2018-Jun-17 05:29N 01°22' E 103°33'0 0.0
2018-Jun-17 04:25N 01°22' E 103°33'0 0.0
2018-Jun-17 03:53N 01°22' E 103°33'0 0.0
2018-Jun-17 03:25N 01°22' E 103°33'0 0.0
2018-Jun-17 02:58N 01°22' E 103°33'0 0.0
2018-Jun-17 02:11N 01°22' E 103°33'0 0.0
2018-Jun-17 01:57N 01°22' E 103°33'1 2.4
2018-Jun-17 01:30N 01°21' E 103°33'510.8
2018-Jun-17 01:00N 01°15' E 103°32'4 7.6
2018-Jun-17 00:30N 01°12' E 103°30'1 2.0
2018-Jun-17 00:00N 01°11' E 103°30'1 1.2
2018-Jun-16 23:28N 01°11' E 103°30'1 1.4
2018-Jun-16 23:00N 01°10' E 103°31'0 0.9
2018-Jun-16 22:30N 01°10' E 103°31'1 2.2
2018-Jun-16 22:00N 01°11' E 103°31'0 0.4
2018-Jun-16 21:30N 01°11' E 103°31'0 0.9
2018-Jun-16 21:00N 01°11' E 103°31'1 2.7
2018-Jun-16 20:30N 01°10' E 103°30'4 7.7
2018-Jun-16 20:00N 01°11' E 103°26'611.7
2018-Jun-16 19:29N 01°15' E 103°21'715.0
2018-Jun-16 18:59N 01°20' E 103°15'815.0
2018-Jun-16 18:26N 01°25' E 103°09'  
Track history (hours):
 
Tides and Currents Weather Stations Pressure Air Temp Water Temp Dewpoint Dewpoint Depression Visibility Wind Speed Wind Dir Waves Ship Positions

Ever Dainty

Last reported at 2018-Jun-19 04:50 UTC. Time now 2018-Jun-19 18:27 UTC.
Position N 01°25' E 103°14'.

Length 294 m; draft 11.9 m.

Type: Cargo ship. MMSI: 565106000.

Date/timePositionNaut miles runAvg speedWind from/ knotsBaromVisibWave heightAir tempDewpointWater temp
2018-Jun-19 04:50N 01°25' E 103°14'616.5
2018-Jun-19 04:29N 01°21' E 103°18'917.7
2018-Jun-19 03:58N 01°15' E 103°25'716.2
2018-Jun-19 03:30N 01°13' E 103°32'714.0
2018-Jun-19 03:00N 01°12' E 103°39'2 4.7
2018-Jun-19 02:29N 01°13' E 103°41'4 8.6
2018-Jun-19 01:59N 01°16' E 103°45'3 5.4
2018-Jun-19 01:30N 01°16' E 103°47'0 0.0
2018-Jun-19 01:00N 01°16' E 103°47'0 0.0
2018-Jun-19 00:30N 01°16' E 103°47'0 0.0
2018-Jun-19 00:00N 01°16' E 103°47'0 0.0
2018-Jun-18 23:30N 01°16' E 103°47'0 0.0
2018-Jun-18 23:01N 01°16' E 103°47'0 0.0
2018-Jun-18 22:30N 01°16' E 103°47'0 0.0
2018-Jun-18 22:00N 01°16' E 103°47'0 0.0
2018-Jun-18 21:30N 01°16' E 103°47'0 0.0
2018-Jun-18 21:00N 01°16' E 103°47'0 0.0
2018-Jun-18 20:30N 01°16' E 103°47'0 0.0
2018-Jun-18 20:00N 01°16' E 103°47'0 0.0
2018-Jun-18 19:30N 01°16' E 103°47'0 0.0
2018-Jun-18 19:00N 01°16' E 103°47'0 0.0
2018-Jun-18 18:27N 01°16' E 103°47'0 0.0
2018-Jun-18 17:54N 01°16' E 103°47'0 0.0
2018-Jun-18 17:30N 01°16' E 103°47'0 0.0
2018-Jun-18 17:00N 01°16' E 103°47'0 0.0
2018-Jun-18 16:31N 01°16' E 103°47'0 0.0
2018-Jun-18 16:00N 01°16' E 103°47'0 0.0
2018-Jun-18 15:30N 01°16' E 103°47'0 0.0
2018-Jun-18 15:00N 01°16' E 103°47'0 0.0
2018-Jun-18 14:30N 01°16' E 103°47'0 0.0
2018-Jun-18 14:00N 01°16' E 103°47'0 0.0
2018-Jun-18 13:30N 01°16' E 103°47'0 0.0
2018-Jun-18 13:00N 01°16' E 103°47'0 0.0
2018-Jun-18 12:30N 01°16' E 103°47'0 0.0
2018-Jun-18 12:00N 01°16' E 103°47'0 0.0
2018-Jun-18 11:22N 01°16' E 103°47'0 0.0
2018-Jun-18 11:00N 01°16' E 103°47'0 0.0
2018-Jun-18 10:27N 01°16' E 103°47'0 0.0
2018-Jun-18 10:00N 01°16' E 103°47'0 0.0
2018-Jun-18 09:30N 01°16' E 103°47'0 0.0
2018-Jun-18 09:00N 01°16' E 103°47'0 0.7
2018-Jun-18 08:30N 01°16' E 103°47'3 6.5
2018-Jun-18 08:01N 01°15' E 103°44'714.1
2018-Jun-18 07:30N 01°12' E 103°37'3 5.5
2018-Jun-18 07:00N 01°11' E 103°35'2 2.9
2018-Jun-18 06:27N 01°10' E 103°34'0 0.9
2018-Jun-18 06:01N 01°10' E 103°33'1 1.4
2018-Jun-18 05:30N 01°10' E 103°33'1 1.1
2018-Jun-18 05:00N 01°10' E 103°32'1 1.0
2018-Jun-18 04:28N 01°10' E 103°32'0 0.9
2018-Jun-18 04:00N 01°09' E 103°31'0 0.4
2018-Jun-18 03:30N 01°09' E 103°32'2 3.4
2018-Jun-18 03:00N 01°10' E 103°30'2 5.0
2018-Jun-18 02:30N 01°12' E 103°28'0 0.9
2018-Jun-18 01:59N 01°11' E 103°29'1 1.4
2018-Jun-18 01:30N 01°11' E 103°29'0 0.9
2018-Jun-18 01:00N 01°11' E 103°30'0 1.0
2018-Jun-18 00:30N 01°11' E 103°30'1 1.1
2018-Jun-17 23:59N 01°10' E 103°30'1 1.2
2018-Jun-17 23:30N 01°10' E 103°30'1 1.3
2018-Jun-17 22:59N 01°09' E 103°31'1 1.2
2018-Jun-17 22:29N 01°09' E 103°31'2 4.8
2018-Jun-17 21:59N 01°11' E 103°32'510.3
2018-Jun-17 21:30N 01°16' E 103°33'5 9.8
2018-Jun-17 21:00N 01°21' E 103°33'1 1.6
2018-Jun-17 20:28N 01°22' E 103°33'0 0.0
2018-Jun-17 19:37N 01°22' E 103°33'0 0.0
2018-Jun-17 19:23N 01°22' E 103°33'0 0.0
2018-Jun-17 18:52N 01°22' E 103°33'0 0.0
2018-Jun-17 18:25N 01°22' E 103°33'0 0.0
2018-Jun-17 17:55N 01°22' E 103°33'0 0.0
2018-Jun-17 17:29N 01°22' E 103°33'0 0.0
2018-Jun-17 16:53N 01°22' E 103°33'0 0.0
2018-Jun-17 16:23N 01°22' E 103°33'0 0.0
2018-Jun-17 15:29N 01°22' E 103°33'0 0.0
2018-Jun-17 14:52N 01°22' E 103°33'0 0.0
2018-Jun-17 14:23N 01°22' E 103°33'0 0.0
2018-Jun-17 13:58N 01°22' E 103°33'0 0.0
2018-Jun-17 13:19N 01°22' E 103°33'0 0.0
2018-Jun-17 12:41N 01°22' E 103°33'0 0.0
2018-Jun-17 12:26N 01°22' E 103°33'0 0.0
2018-Jun-17 11:58N 01°22' E 103°33'0 0.0
2018-Jun-17 11:20N 01°22' E 103°33'0 0.0
2018-Jun-17 10:52N 01°22' E 103°33'0 0.0
2018-Jun-17 10:17N 01°22' E 103°33'0 0.0
2018-Jun-17 09:59N 01°22' E 103°33'0 0.0
2018-Jun-17 08:58N 01°22' E 103°33'0 0.0
2018-Jun-17 08:23N 01°22' E 103°33'0 0.0
2018-Jun-17 07:47N 01°22' E 103°33'0 0.0
2018-Jun-17 07:29N 01°22' E 103°33'0 0.0
2018-Jun-17 06:56N 01°22' E 103°33'0 0.0
2018-Jun-17 06:22N 01°22' E 103°33'0 0.0
2018-Jun-17 05:53N 01°22' E 103°33'0 0.0
2018-Jun-17 05:29N 01°22' E 103°33'0 0.0
2018-Jun-17 04:25N 01°22' E 103°33'0 0.0
2018-Jun-17 03:53N 01°22' E 103°33'0 0.0
2018-Jun-17 03:25N 01°22' E 103°33'0 0.0
2018-Jun-17 02:58N 01°22' E 103°33'0 0.0
2018-Jun-17 02:11N 01°22' E 103°33'0 0.0
2018-Jun-17 01:57N 01°22' E 103°33'1 2.4
2018-Jun-17 01:30N 01°21' E 103°33'510.8
2018-Jun-17 01:00N 01°15' E 103°32'4 7.6
2018-Jun-17 00:30N 01°12' E 103°30'1 2.0
2018-Jun-17 00:00N 01°11' E 103°30'1 1.2
2018-Jun-16 23:28N 01°11' E 103°30'1 1.4
2018-Jun-16 23:00N 01°10' E 103°31'0 0.9
2018-Jun-16 22:30N 01°10' E 103°31'1 2.2
2018-Jun-16 22:00N 01°11' E 103°31'0 0.4
2018-Jun-16 21:30N 01°11' E 103°31'0 0.9
2018-Jun-16 21:00N 01°11' E 103°31'1 2.7
2018-Jun-16 20:30N 01°10' E 103°30'4 7.7
2018-Jun-16 20:00N 01°11' E 103°26'611.7
2018-Jun-16 19:29N 01°15' E 103°21'715.0
2018-Jun-16 18:59N 01°20' E 103°15'815.0
2018-Jun-16 18:26N 01°25' E 103°09'  

Dump ship's entire track history